Nearby METAR Reports

 

EGNV - Tees-Side, United Kingdom
Distance from station: W 8mi, 13km
Updated: 26/06/2017 23:20
NOT Current
Few Clouds
Few Clouds
 Wind from SE
Wind: SE 8 mph , 13 km/h
Temperature: 12°C
Dew Point: 8°C
Humidity: 77%
Barometer: 1014 hPa
Clouds: Few Clouds
Visibility: 6 miles , 10 km
Cloud details: Few Clouds 1280 m
2017/06/26 22:20 EGNV 262220Z 13007KT 9999 FEW042 12/08 Q1014
EGXE - Leeming Raf, United Kingdom
Distance from station: SW 21mi, 34km
Updated: 27/06/2017 01:50
Light rain, Showers, Overcast
Light rain, Showers, Overcast
 Wind from S
Wind: S 7 mph , 11 km/h
Temperature: 12°C
Dew Point: 9°C
Humidity: 82%
Barometer: 1013 hPa
Summary: Light rain, Showers
Clouds: Overcast
Visibility: 6 miles , 10 km
Cloud details: Overcast 1524 m
2017/06/27 00:50 EGXE 270050Z AUTO 18006KT 9999 -SHRA OVC050/// 12/09 Q1013
 
EGXZ - Topcliffe Raf, United Kingdom
Distance from station: SSW 24mi, 38km
Updated: 27/06/2017 01:50
Overcast
Overcast
 Wind from SE
Wind: SE 7 mph , 11 km/h
Temperature: 11°C
Dew Point: 10°C
Humidity: 94%
Barometer: 1013 hPa
Clouds: Overcast
Visibility: 6 miles , 10 km
Cloud details: Overcast 1829 m
2017/06/27 00:50 EGXZ 270050Z AUTO 13006KT 9999 OVC060/// 11/10 Q1013
EGXD - Dishforth Raf, United Kingdom
Distance from station: SSW 29mi, 46km
Updated: 06/06/2016 10:50
NOT Current
Clear
Clear
 Wind from SSE
Wind: SSE 5 mph , 7 km/h
Temperature: 18°C
Dew Point: 11°C
Humidity: 64%
Barometer: 1023 hPa
Clouds: Clear
Visibility: 6 miles , 10 km
2016/06/06 09:50 EGXD 060950Z AUTO 16004KT 9999 // NCD 18/11 Q1023
 
EGXU - Linton-On-Ouse R, United Kingdom
Distance from station: S 33mi, 53km
Updated: 27/06/2017 01:50
Overcast
Overcast
 Wind from E
Wind: E 3 mph , 6 km/h
Temperature: 12°C
Dew Point: 9°C
Humidity: 82%
Barometer: 1013 hPa
Clouds: Overcast
Visibility: 6 miles , 10 km
Cloud details: Overcast 1524 m
2017/06/27 00:50 EGXU 270050Z AUTO 09003KT 9999 // OVC050/// 12/09 Q1013
EGNT - Newcastle, United Kingdom
Distance from station: NNW 39mi, 63km
Updated: 27/06/2017 02:20
Light rain, Showers, Mostly cloudy
Light rain, Showers, Mostly cloudy
 Wind from varies
Wind: varies 1 mph , 2 km/h
Temperature: 11°C
Dew Point: 10°C
Humidity: 94%
Barometer: 1013 hPa
Summary: Light rain, Showers
Clouds: Mostly cloudy
Visibility: 6 miles , 10 km
Cloud details: Mostly cloudy 1219 m
2017/06/27 01:20 EGNT 270120Z VRB01KT 9999 -SHRA BKN040 11/10 Q1013
 
EGNM - Leeds And Bradfo, United Kingdom
Distance from station: SSW 49mi, 79km
Updated: 27/06/2017 02:20
Mostly cloudy
Mostly cloudy
 Wind from E
Wind: E 8 mph , 13 km/h
Temperature: 11°C
Dew Point: 10°C
Humidity: 94%
Barometer: 1012 hPa
Clouds: Mostly cloudy
Visibility: 6 miles , 10 km
Cloud details: Mostly cloudy 1341 m
2017/06/27 01:20 EGNM 270120Z 09007KT 9999 BKN044 11/10 Q1012